Time;durP1;ratioP1;P1;durP2;ratioP2;P2;SDS_P1;SDS_P2;PMS_P1;PMS_P2;Temp;Humidity;BMP_temperature;BMP_pressure;BME280_temperature;BME280_humidity;BME280_pressure;Samples;Min_cycle;Max_cycle;Signal;HPM_P1;HPM_P2
2022/10/03 00:01:34;;;;;;;18.45;9.13;;;;;;;11.02;100.00;99605.88;5010062;28;20071;-68
2022/10/03 00:04:36;;;;;;;17.88;9.23;;;;;;;11.02;100.00;99624.81;5035674;28;20102;-68
2022/10/03 00:07:18;;;;;;;13.52;8.07;;;;;;;11.01;100.00;99625.03;5043121;28;20029;-69
2022/10/03 00:10:13;;;;;;;16.98;8.82;;;;;;;10.94;100.00;99630.31;5044361;28;20044;-68
2022/10/03 00:12:58;;;;;;;18.00;9.27;;;;;;;11.00;100.00;99639.56;5037483;28;20033;-69
2022/10/03 00:15:30;;;;;;;17.58;9.95;;;;;;;11.05;100.00;99642.56;5056141;28;20016;-68
2022/10/03 00:18:09;;;;;;;23.17;10.25;;;;;;;11.06;100.00;99646.97;5054721;28;20505;-69
2022/10/03 00:20:44;;;;;;;20.95;10.27;;;;;;;11.01;100.00;99642.09;5042813;28;20100;-68
2022/10/03 00:23:44;;;;;;;20.60;9.98;;;;;;;10.99;100.00;99643.31;5038080;28;20034;-69
2022/10/03 00:26:34;;;;;;;20.05;10.27;;;;;;;10.97;100.00;99647.03;4999731;28;20041;-69
2022/10/03 00:29:35;;;;;;;22.33;10.23;;;;;;;10.91;100.00;99630.69;5041291;28;20029;-68
2022/10/03 00:32:33;;;;;;;24.50;10.43;;;;;;;11.02;100.00;99648.34;5041338;28;20074;-68
2022/10/03 00:35:20;;;;;;;20.85;10.18;;;;;;;11.03;100.00;99655.44;5056554;28;20029;-68
2022/10/03 00:38:17;;;;;;;18.75;10.43;;;;;;;11.07;100.00;99656.75;5034973;28;20037;-68
2022/10/03 00:41:36;;;;;;;19.08;10.55;;;;;;;11.04;100.00;99659.84;5041217;28;20056;-68
2022/10/03 00:44:26;;;;;;;20.85;10.20;;;;;;;10.97;100.00;99662.44;4986991;28;20026;-68
2022/10/03 00:47:19;;;;;;;21.10;10.27;;;;;;;10.96;100.00;99660.78;5038350;28;20029;-68
2022/10/03 00:50:18;;;;;;;19.83;10.23;;;;;;;11.00;100.00;99661.22;5042423;28;20421;-68
2022/10/03 00:52:53;;;;;;;18.55;10.25;;;;;;;11.00;100.00;99659.34;5040544;28;20051;-68
2022/10/03 00:55:36;;;;;;;18.35;9.95;;;;;;;10.98;100.00;99661.44;5048865;28;20501;-68
2022/10/03 00:58:24;;;;;;;20.02;10.35;;;;;;;10.77;100.00;99623.38;5045830;28;20040;-68
2022/10/03 01:00:51;;;;;;;19.10;10.80;;;;;;;11.03;100.00;99658.16;5037670;28;20132;-69
2022/10/03 01:03:54;;;;;;;21.30;10.50;;;;;;;10.95;100.00;99654.53;5038858;28;20087;-68
2022/10/03 01:06:29;;;;;;;20.30;10.05;;;;;;;10.94;100.00;99657.41;5015505;28;20033;-68
2022/10/03 01:09:05;;;;;;;16.52;10.48;;;;;;;10.94;100.00;99660.94;5049942;28;20017;-68
2022/10/03 01:12:00;;;;;;;20.27;10.52;;;;;;;10.92;100.00;99664.84;5043890;28;20040;-68
2022/10/03 01:14:56;;;;;;;20.15;9.80;;;;;;;10.85;100.00;99663.94;5039419;28;20024;-68
2022/10/03 01:17:37;;;;;;;20.00;10.32;;;;;;;10.80;100.00;99639.28;5037733;28;20059;-68
2022/10/03 01:20:50;;;;;;;20.30;10.63;;;;;;;10.89;100.00;99657.94;5043346;28;20148;-68
2022/10/03 01:23:36;;;;;;;23.08;10.85;;;;;;;10.90;100.00;99659.66;5026785;28;20056;-68
2022/10/03 01:26:27;;;;;;;18.35;10.13;;;;;;;10.93;100.00;99656.56;5044503;28;20044;-68
2022/10/03 01:32:23;;;;;;;14.48;7.72;;;;;;;10.98;100.00;99664.13;5042614;28;20532;-68
2022/10/03 01:35:05;;;;;;;17.83;10.05;;;;;;;10.97;100.00;99657.84;5036475;28;20040;-68
2022/10/03 01:37:58;;;;;;;18.40;9.85;;;;;;;10.99;100.00;99660.41;5041218;28;20414;-68
2022/10/03 01:40:28;;;;;;;18.38;10.50;;;;;;;10.95;100.00;99659.94;5045708;28;20051;-68
2022/10/03 01:43:18;;;;;;;25.45;9.98;;;;;;;10.97;100.00;99673.25;5043885;28;20147;-68
2022/10/03 01:46:06;;;;;;;20.10;10.07;;;;;;;10.97;100.00;99676.81;5038656;28;20025;-68
2022/10/03 01:48:58;;;;;;;26.05;10.18;;;;;;;11.01;100.00;99680.00;5041975;28;20112;-68
2022/10/03 01:51:44;;;;;;;23.15;10.88;;;;;;;11.03;100.00;99680.66;5047298;28;20031;-68
2022/10/03 01:54:28;;;;;;;17.92;10.75;;;;;;;11.04;100.00;99674.22;5045014;28;20025;-68
2022/10/03 01:57:00;;;;;;;24.70;11.30;;;;;;;11.05;100.00;99685.88;5046613;28;20021;-68
2022/10/03 01:59:55;;;;;;;22.02;10.77;;;;;;;11.04;100.00;99684.22;5046715;28;20048;-68
2022/10/03 02:02:34;;;;;;;20.60;10.68;;;;;;;11.05;100.00;99685.88;5037916;28;20021;-69
2022/10/03 02:05:08;;;;;;;25.85;11.02;;;;;;;11.03;100.00;99688.78;5053121;28;20024;-69
2022/10/03 02:07:50;;;;;;;20.83;11.02;;;;;;;11.04;100.00;99695.03;5048140;28;20465;-69
2022/10/03 02:10:45;;;;;;;21.70;11.50;;;;;;;11.04;100.00;99690.47;5058870;28;20078;-69
2022/10/03 02:13:21;;;;;;;19.40;10.50;;;;;;;11.05;100.00;99697.56;5046459;28;20108;-69
2022/10/03 02:16:04;;;;;;;22.48;11.20;;;;;;;11.02;100.00;99681.69;5045207;28;20117;-69
2022/10/03 02:19:13;;;;;;;21.15;11.38;;;;;;;11.06;100.00;99701.13;5053016;28;20051;-69
2022/10/03 02:21:50;;;;;;;23.63;11.93;;;;;;;11.07;100.00;99697.38;5025052;28;20040;-69
2022/10/03 02:24:28;;;;;;;17.95;10.50;;;;;;;11.06;100.00;99701.97;5055924;28;20035;-69
2022/10/03 02:27:20;;;;;;;20.02;11.85;;;;;;;10.97;100.00;99684.09;5059658;28;20037;-68
2022/10/03 02:29:57;;;;;;;21.75;12.13;;;;;;;11.01;100.00;99698.97;5034162;28;20032;-68
2022/10/03 02:33:00;;;;;;;19.55;11.20;;;;;;;11.03;100.00;99702.34;5044263;28;20017;-69
2022/10/03 02:35:43;;;;;;;23.55;11.32;;;;;;;11.01;100.00;99701.66;5063528;28;20072;-69
2022/10/03 02:38:17;;;;;;;26.20;11.63;;;;;;;10.98;100.00;99696.63;5063670;28;20029;-69
2022/10/03 02:40:42;;;;;;;20.83;12.20;;;;;;;10.97;100.00;99694.94;5070833;28;20084;-69
2022/10/03 02:43:32;;;;;;;21.08;12.00;;;;;;;10.93;100.00;99707.16;5062329;28;20033;-69
2022/10/03 02:46:42;;;;;;;23.67;12.40;;;;;;;10.92;100.00;99706.31;5059215;28;20002;-69
2022/10/03 02:49:35;;;;;;;29.75;12.13;;;;;;;10.95;100.00;99700.53;5063682;28;20085;-69
2022/10/03 02:52:19;;;;;;;22.30;12.60;;;;;;;10.98;100.00;99704.75;5056742;28;20065;-69
2022/10/03 02:55:21;;;;;;;20.02;11.80;;;;;;;10.98;100.00;99718.28;5061123;28;20048;-69
2022/10/03 02:58:20;;;;;;;26.85;11.88;;;;;;;11.02;100.00;99708.75;5038565;28;20044;-69
2022/10/03 03:00:48;;;;;;;20.10;11.37;;;;;;;11.04;100.00;99704.00;5046131;28;20473;-69
2022/10/03 03:03:33;;;;;;;23.55;11.57;;;;;;;11.01;100.00;99701.66;5051882;28;20029;-69
2022/10/03 03:06:16;;;;;;;25.48;12.02;;;;;;;11.00;100.00;99705.38;5041544;28;20128;-69
2022/10/03 03:09:01;;;;;;;19.30;10.88;;;;;;;11.00;100.00;99705.38;5049146;28;20112;-69
2022/10/03 03:11:58;;;;;;;21.65;11.45;;;;;;;11.01;100.00;99700.84;5042152;28;20056;-69
2022/10/03 03:15:00;;;;;;;18.67;11.23;;;;;;;11.02;100.00;99702.50;5043888;28;20451;-69
2022/10/03 03:17:38;;;;;;;19.05;11.68;;;;;;;11.03;100.00;99705.03;5036486;28;20049;-69
2022/10/03 03:20:51;;;;;;;19.70;10.07;;;;;;;11.06;100.00;99701.13;5040524;28;20025;-69
2022/10/03 03:23:54;;;;;;;19.92;9.40;;;;;;;10.96;100.00;99696.81;5051049;22;20056;-70
2022/10/03 03:26:29;;;;;;;19.52;10.15;;;;;;;10.92;100.00;99691.94;5025023;28;20037;-71
2022/10/03 03:29:03;;;;;;;16.70;10.13;;;;;;;10.92;100.00;99691.94;5016452;28;20022;-69
2022/10/03 03:31:59;;;;;;;21.50;9.50;;;;;;;10.82;100.00;99669.69;5021426;28;20030;-69
2022/10/03 03:34:34;;;;;;;17.33;9.27;;;;;;;10.90;100.00;99685.88;5018165;28;20398;-71
2022/10/03 03:37:24;;;;;;;18.85;8.80;;;;;;;10.91;100.00;99695.66;5018968;28;20041;-69
2022/10/03 03:40:05;;;;;;;16.73;8.95;;;;;;;10.91;100.00;99698.38;5024621;28;20117;-70
2022/10/03 03:42:55;;;;;;;21.75;9.23;;;;;;;10.92;100.00;99700.06;5027989;28;20143;-70
2022/10/03 03:45:42;;;;;;;21.17;9.73;;;;;;;10.94;100.00;99700.72;5020044;28;20025;-70
2022/10/03 03:48:25;;;;;;;16.30;9.38;;;;;;;10.93;100.00;99709.88;5023147;28;20072;-69
2022/10/03 03:51:01;;;;;;;21.13;9.38;;;;;;;10.89;100.00;99700.41;5022171;28;20029;-70
2022/10/03 03:53:41;;;;;;;18.88;8.88;;;;;;;10.97;100.00;99711.19;5029782;28;20028;-70
2022/10/03 03:56:14;;;;;;;16.38;9.13;;;;;;;10.97;100.00;99712.00;5024954;28;20029;-70
2022/10/03 03:58:58;;;;;;;21.80;10.35;;;;;;;10.99;100.00;99719.13;5031662;28;20025;-69
2022/10/03 04:01:45;;;;;;;23.25;10.73;;;;;;;10.98;100.00;99723.72;5020759;28;20054;-70
2022/10/03 04:04:27;;;;;;;16.63;9.00;;;;;;;10.97;100.00;99728.25;5021839;28;20096;-69
2022/10/03 04:07:02;;;;;;;18.77;9.68;;;;;;;10.93;100.00;99718.00;5022309;28;20029;-69
2022/10/03 04:10:10;;;;;;;11.75;7.80;;;;;;;10.99;100.00;99719.97;5027203;28;20060;-70
2022/10/03 04:12:56;;;;;;;19.33;8.38;;;;;;;10.88;100.00;99723.13;5017355;28;20398;-71
2022/10/03 04:15:38;;;;;;;16.33;8.27;;;;;;;10.70;100.00;99694.50;5017240;28;20413;-70
2022/10/03 04:21:19;;;;;;;14.27;8.80;;;;;;;10.78;100.00;99720.66;5030421;28;20052;-69
2022/10/03 04:23:51;;;;;;;15.90;9.32;;;;;;;10.75;100.00;99721.84;5018958;28;20045;-70
2022/10/03 04:26:30;;;;;;;25.08;9.63;;;;;;;10.76;100.00;99722.69;5030547;28;20032;-70
2022/10/03 04:29:17;;;;;;;17.58;9.48;;;;;;;10.80;100.00;99720.50;5027189;28;20025;-70
2022/10/03 04:31:57;;;;;;;25.25;9.73;;;;;;;10.75;100.00;99721.84;5022379;28;20041;-70
2022/10/03 04:34:35;;;;;;;18.02;9.60;;;;;;;10.69;100.00;99725.31;5025881;28;20029;-70
2022/10/03 04:37:24;;;;;;;19.75;10.45;;;;;;;10.62;100.00;99720.78;5031032;28;20487;-69
2022/10/03 04:40:06;;;;;;;21.55;10.77;;;;;;;10.43;100.00;99703.19;5031027;28;20475;-69
2022/10/03 04:43:12;;;;;;;24.02;10.95;;;;;;;10.40;100.00;99708.94;5024386;28;20063;-69
2022/10/03 04:45:58;;;;;;;21.27;10.60;;;;;;;10.08;100.00;99678.34;4996745;28;20034;-69
2022/10/03 04:48:37;;;;;;;23.42;11.93;;;;;;;10.08;100.00;99695.41;5026306;28;20119;-69
2022/10/03 04:51:15;;;;;;;26.13;12.63;;;;;;;10.05;100.00;99714.69;5020542;28;20076;-72
2022/10/03 04:54:08;;;;;;;22.73;12.10;;;;;;;9.62;100.00;99667.47;5014880;28;20065;-69
2022/10/03 04:56:51;;;;;;;29.52;13.55;;;;;;;9.77;100.00;99713.50;5010964;28;20049;-69
2022/10/03 04:59:45;;;;;;;32.67;14.25;;;;;;;9.60;100.00;99716.25;5030079;28;20032;-69
2022/10/03 05:02:29;;;;;;;29.23;13.63;;;;;;;9.48;100.00;99730.31;5030478;28;20117;-70
2022/10/03 05:05:11;;;;;;;36.15;15.48;;;;;;;9.37;100.00;99723.44;5030405;28;20033;-73
2022/10/03 05:07:42;;;;;;;35.72;15.13;;;;;;;9.32;100.00;99721.25;5020614;28;20041;-69
2022/10/03 05:10:25;;;;;;;30.42;14.90;;;;;;;9.32;100.00;99721.25;5026704;28;20100;-70
2022/10/03 05:13:01;;;;;;;45.05;17.08;;;;;;;9.47;100.00;99736.75;5024470;28;20025;-69
2022/10/03 05:15:48;;;;;;;42.85;17.05;;;;;;;9.46;100.00;99719.72;5023302;28;20028;-69
2022/10/03 05:18:18;;;;;;;42.05;15.88;;;;;;;9.65;100.00;99749.00;5030026;28;20031;-69
2022/10/03 05:20:51;;;;;;;39.70;16.50;;;;;;;9.68;100.00;99745.13;5023055;28;20479;-70
2022/10/03 05:23:30;;;;;;;38.78;16.90;;;;;;;9.70;100.00;99721.47;5031791;28;20044;-69
2022/10/03 05:26:07;;;;;;;44.00;16.17;;;;;;;9.86;100.00;99748.41;5026429;28;20056;-71
2022/10/03 05:28:58;;;;;;;33.58;15.00;;;;;;;9.91;100.00;99752.47;5023194;28;20276;-72
2022/10/03 05:31:52;;;;;;;37.05;16.00;;;;;;;9.94;100.00;99763.75;5020305;28;20037;-69
2022/10/03 05:34:45;;;;;;;35.13;15.25;;;;;;;9.98;100.00;99762.41;5018051;28;20033;-71
2022/10/03 05:37:11;;;;;;;33.58;14.75;;;;;;;10.04;100.00;99766.25;5021617;28;20489;-73
2022/10/03 05:39:41;;;;;;;36.53;14.57;;;;;;;10.00;100.00;99756.81;5027620;28;20128;-74
2022/10/03 05:42:13;;;;;;;30.83;13.18;;;;;;;10.04;100.00;99768.97;5019310;28;20036;-73
2022/10/03 05:44:43;;;;;;;31.33;14.20;;;;;;;9.91;100.00;99747.91;5018466;28;20479;-73
2022/10/03 05:50:41;;;;;;;30.60;14.25;;;;;;;9.95;100.00;99791.63;5031723;28;20036;-73
2022/10/03 05:53:39;;;;;;;36.72;15.10;;;;;;;9.81;100.00;99775.13;5026027;28;20068;-74
2022/10/03 05:56:12;;;;;;;27.23;13.75;;;;;;;9.94;100.00;99789.97;5015332;28;20033;-74
2022/10/03 05:59:12;;;;;;;36.67;14.57;;;;;;;9.98;100.00;99792.16;5018260;28;20041;-73
2022/10/03 06:01:57;;;;;;;28.92;13.90;;;;;;;9.95;100.00;99783.53;5016597;28;20045;-73
2022/10/03 06:05:00;;;;;;;28.20;13.23;;;;;;;9.98;100.00;99796.69;5014821;28;20071;-73
2022/10/03 06:07:30;;;;;;;29.77;13.88;;;;;;;10.00;100.00;99795.50;5020936;28;20044;-73
2022/10/03 06:10:17;;;;;;;32.00;14.10;;;;;;;10.00;100.00;99790.09;5019584;28;20479;-74
2022/10/03 06:13:10;;;;;;;28.83;13.07;;;;;;;10.03;100.00;99799.72;5025145;28;20041;-74
2022/10/03 06:15:53;;;;;;;31.35;13.85;;;;;;;9.98;100.00;99786.75;5022036;28;20021;-74
2022/10/03 06:19:02;;;;;;;32.90;13.75;;;;;;;10.00;100.00;99781.97;5025331;28;20071;-74
2022/10/03 06:21:45;;;;;;;;;;;;;;;10.18;100.00;99800.66;5021976;28;20479;-74
2022/10/03 06:24:42;;;;;;;28.70;12.02;;;;;;;10.22;100.00;99804.72;5041860;28;19914;-74
2022/10/03 06:27:35;;;;;;;23.90;12.68;;;;;;;10.30;100.00;99801.16;5019374;28;20053;-74
2022/10/03 06:30:23;;;;;;;28.30;13.50;;;;;;;10.27;100.00;99785.22;5019963;28;20021;-74
2022/10/03 06:33:22;;;;;;;25.02;12.63;;;;;;;10.43;100.00;99790.59;5018622;28;20374;-73
2022/10/03 06:36:08;;;;;;;19.98;10.45;;;;;;;10.70;100.00;99805.47;5042604;28;20036;-74
2022/10/03 06:39:11;;;;;;;24.42;12.18;;;;;;;10.73;100.00;99802.41;5026767;28;20025;-73
2022/10/03 06:42:21;;;;;;;26.02;11.88;;;;;;;11.02;100.00;99781.88;5021010;28;20034;-73
2022/10/03 06:45:08;;;;;;;20.23;10.30;;;;;;;11.32;100.00;99795.50;5028689;28;20493;-74
2022/10/03 06:48:04;;;;;;;18.75;10.60;;;;;;;11.65;100.00;99790.56;5015482;28;20030;-74
2022/10/03 06:50:43;;;;;;;21.00;10.50;;;;;;;11.96;100.00;99793.13;5015330;28;20029;-74
2022/10/03 06:53:39;;;;;;;18.10;9.75;;;;;;;12.29;100.00;99790.03;5025717;28;20029;-74
2022/10/03 06:56:30;;;;;;;15.63;10.05;;;;;;;12.61;100.00;99780.56;5023579;28;20033;-74
2022/10/03 06:59:37;;;;;;;21.40;10.13;;;;;;;12.96;100.00;99780.69;5024040;28;20022;-75
2022/10/03 07:02:21;;;;;;;18.27;9.18;;;;;;;13.08;100.00;99786.47;5044096;28;20037;-73
2022/10/03 07:05:04;;;;;;;21.27;9.35;;;;;;;12.96;100.00;99788.84;5022704;28;20026;-70
2022/10/03 07:08:10;;;;;;;17.90;9.45;;;;;;;12.80;100.00;99776.38;5013518;28;20498;-74
2022/10/03 07:11:05;;;;;;;18.77;9.25;;;;;;;12.43;100.00;99789.13;5016787;28;20033;-73
2022/10/03 07:14:08;;;;;;;22.63;9.65;;;;;;;12.36;100.00;99792.78;5000596;28;20563;-72
2022/10/03 07:16:52;;;;;;;18.58;8.68;;;;;;;12.50;100.00;99795.50;5024299;28;20395;-73
2022/10/03 07:19:24;;;;;;;18.45;8.73;;;;;;;12.35;100.00;99801.97;5016579;28;20387;-69
2022/10/03 07:22:54;;;;;;;18.98;9.43;;;;;;;12.41;100.00;99804.75;5020892;28;20047;-71
2022/10/03 07:25:33;;;;;;;18.65;8.80;;;;;;;12.32;100.00;99784.22;4968009;28;20375;-70
2022/10/03 07:28:01;;;;;;;16.80;8.90;;;;;;;12.55;100.00;99796.75;5014505;28;20187;-71
2022/10/03 07:30:48;;;;;;;15.00;8.10;;;;;;;12.62;100.00;99797.69;5016209;28;20029;-71
2022/10/03 07:34:08;;;;;;;14.60;8.30;;;;;;;12.90;100.00;99804.03;5016360;28;20132;-73
2022/10/03 07:40:02;;;;;;;16.75;7.47;;;;;;;13.38;100.00;99811.59;5025061;28;19924;-73
2022/10/03 07:42:38;;;;;;;13.90;7.50;;;;;;;13.44;100.00;99796.38;5021942;28;20034;-71
2022/10/03 07:45:19;;;;;;;13.10;7.57;;;;;;;13.72;100.00;99815.41;5017023;28;20030;-73
2022/10/03 07:48:12;;;;;;;16.83;7.10;;;;;;;13.68;100.00;99814.97;5018411;28;20030;-73
2022/10/03 07:51:11;;;;;;;13.05;6.07;;;;;;;13.64;100.00;99813.69;5016009;28;20030;-75
2022/10/03 07:53:55;;;;;;;14.50;6.68;;;;;;;13.78;100.00;99815.47;5026003;28;20509;-73
2022/10/03 07:56:59;;;;;;;11.15;5.65;;;;;;;13.79;100.00;99817.13;5026944;28;20498;-77
2022/10/03 07:59:33;;;;;;;10.15;5.75;;;;;;;13.77;100.00;99829.25;5021450;28;20453;-76
2022/10/03 08:02:33;;;;;;;20.00;6.10;;;;;;;13.59;100.00;99830.59;5016314;28;20037;-77
2022/10/03 08:05:26;;;;;;;10.38;6.22;;;;;;;13.56;100.00;99828.25;5023652;28;20026;-77
2022/10/03 08:08:23;;;;;;;12.25;5.65;;;;;;;13.59;100.00;99825.16;5013021;28;20034;-76
2022/10/03 08:11:26;;;;;;;15.02;6.10;;;;;;;13.67;100.00;99826.03;5015073;28;20025;-76
2022/10/03 08:14:29;;;;;;;14.70;5.88;;;;;;;13.66;100.00;99827.09;5022075;28;20036;-75
2022/10/03 08:17:16;;;;;;;13.48;5.78;;;;;;;13.69;100.00;99830.25;5012698;28;20025;-72
2022/10/03 08:19:51;;;;;;;16.25;5.80;;;;;;;13.89;100.00;99829.56;5029617;28;20026;-72
2022/10/03 08:22:41;;;;;;;12.82;6.18;;;;;;;13.81;100.00;99836.81;5023095;28;20087;-74
2022/10/03 08:25:16;;;;;;;19.45;8.25;;;;;;;13.70;100.00;99837.38;5019045;28;20080;-73
2022/10/03 08:28:11;;;;;;;18.38;7.55;;;;;;;13.72;100.00;99838.00;5022096;28;20021;-74
2022/10/03 08:31:06;;;;;;;17.25;7.63;;;;;;;13.73;100.00;99838.88;5012061;28;20121;-67
2022/10/03 08:33:32;;;;;;;16.42;7.20;;;;;;;13.62;100.00;99842.13;4981159;28;20565;-71
2022/10/03 08:36:13;;;;;;;17.23;8.75;;;;;;;13.54;100.00;99816.75;5025147;28;20060;-73
2022/10/03 08:38:56;;;;;;;14.80;7.75;;;;;;;13.99;100.00;99836.31;5019785;28;20033;-72
2022/10/03 08:41:40;;;;;;;18.35;8.02;;;;;;;14.12;100.00;99832.84;5023313;28;20064;-71
2022/10/03 08:44:43;;;;;;;15.48;8.57;;;;;;;14.37;100.00;99832.31;5021078;28;20033;-70
2022/10/03 08:47:15;;;;;;;17.65;9.18;;;;;;;14.85;100.00;99826.84;5030734;28;20120;-71
2022/10/03 08:49:50;;;;;;;12.55;5.55;;;;;;;15.09;100.00;99826.28;5028258;28;20125;-70
2022/10/03 08:52:23;;;;;;;12.90;6.18;;;;;;;15.13;100.00;99819.34;5021060;28;20024;-71
2022/10/03 08:55:10;;;;;;;12.43;5.38;;;;;;;15.21;100.00;99825.66;5025087;28;20116;-73
2022/10/03 08:57:57;;;;;;;14.40;5.45;;;;;;;15.41;100.00;99828.41;5029778;28;20414;-74
2022/10/03 09:00:26;;;;;;;14.90;5.25;;;;;;;15.40;100.00;99827.53;5024411;28;20391;-75
2022/10/03 09:03:35;;;;;;;14.80;5.70;;;;;;;15.24;100.00;99814.31;5020936;28;20026;-76
2022/10/03 09:06:03;;;;;;;8.18;4.57;;;;;;;15.06;100.00;99823.97;5019603;28;20033;-76
2022/10/03 09:08:49;;;;;;;11.77;5.30;;;;;;;15.25;100.00;99826.91;5033022;28;20026;-76
2022/10/03 09:11:29;;;;;;;11.02;5.22;;;;;;;15.37;100.00;99821.66;5050874;28;20033;-77
2022/10/03 09:14:13;;;;;;;15.82;5.40;;;;;;;15.15;100.00;99821.03;5024535;28;20025;-76
2022/10/03 09:17:02;;;;;;;16.20;4.65;;;;;;;15.20;100.00;99818.53;5020910;28;20034;-75
2022/10/03 09:19:51;;;;;;;7.28;4.47;;;;;;;15.29;100.00;99823.53;5022405;28;20039;-73
2022/10/03 09:22:54;;;;;;;12.32;5.22;;;;;;;15.55;100.00;99825.44;5019501;28;20077;-74
2022/10/03 09:25:47;;;;;;;10.13;4.95;;;;;;;15.78;100.00;99826.94;5070242;22;20045;-76
2022/10/03 09:28:21;;;;;;;11.93;4.97;;;;;;;16.28;100.00;99826.38;5049510;28;20040;-77
2022/10/03 09:31:21;;;;;;;10.52;5.03;;;;;;;16.60;100.00;99833.59;5049376;28;20021;-74
2022/10/03 09:34:23;;;;;;;12.73;5.28;;;;;;;16.97;98.60;99825.63;5047176;28;20029;-76
2022/10/03 09:37:11;;;;;;;10.27;4.43;;;;;;;16.82;95.69;99827.81;5072271;28;20096;-76
2022/10/03 09:40:08;;;;;;;12.50;4.65;;;;;;;17.30;99.53;99810.91;5049664;28;20505;-75
2022/10/03 09:42:54;;;;;;;14.70;6.95;;;;;;;17.02;100.00;99814.88;5046068;28;20032;-71
2022/10/03 09:45:55;;;;;;;12.73;5.70;;;;;;;17.01;100.00;99798.72;5040822;28;20096;-73
2022/10/03 09:48:20;;;;;;;12.68;5.03;;;;;;;16.69;100.00;99815.06;5046628;28;20032;-72
2022/10/03 09:51:08;;;;;;;10.25;4.93;;;;;;;16.37;100.00;99816.88;5050648;28;20029;-73
2022/10/03 09:54:07;;;;;;;10.82;6.25;;;;;;;16.12;100.00;99816.78;5050095;28;20017;-72
2022/10/03 09:57:00;;;;;;;11.35;5.25;;;;;;;15.77;100.00;99826.09;5041653;28;20029;-70
2022/10/03 10:00:02;;;;;;;9.75;5.28;;;;;;;16.11;100.00;99821.41;5013056;28;20461;-71
2022/10/03 10:03:09;;;;;;;8.15;4.40;;;;;;;17.55;97.00;99789.00;5028372;28;20479;-71
2022/10/03 10:05:43;;;;;;;8.15;4.15;;;;;;;18.06;89.75;99812.53;5024712;28;20090;-72
2022/10/03 10:08:19;;;;;;;11.63;4.20;;;;;;;17.88;85.79;99815.25;5027707;28;20068;-71
2022/10/03 10:11:06;;;;;;;9.88;4.15;;;;;;;19.00;74.84;99812.19;5029950;28;20040;-70
2022/10/03 10:14:09;;;;;;;8.13;3.97;;;;;;;18.40;74.75;99819.28;5023312;28;20030;-70
2022/10/03 10:17:14;;;;;;;11.27;3.53;;;;;;;17.59;76.69;99828.53;5032988;28;20036;-70
2022/10/03 10:19:51;;;;;;;10.70;3.88;;;;;;;17.88;75.63;99826.19;5029549;28;20040;-70
2022/10/03 10:22:26;;;;;;;7.93;3.42;;;;;;;21.31;62.60;99823.59;5028391;28;20075;-71
2022/10/03 10:25:16;;;;;;;9.77;4.05;;;;;;;21.08;62.58;99821.81;5031634;28;20029;-72
2022/10/03 10:27:54;;;;;;;8.57;3.80;;;;;;;19.78;68.64;99829.50;5029142;28;20152;-71
2022/10/03 10:30:53;;;;;;;9.30;3.45;;;;;;;19.34;67.53;99823.50;5029069;28;20021;-70
2022/10/03 10:33:38;;;;;;;;;;;;;;;18.33;74.21;99829.47;5018935;28;20021;-71
2022/10/03 10:36:24;;;;;;;10.07;3.40;;;;;;;18.00;79.17;99826.28;5029826;28;19913;-70
2022/10/03 10:38:58;;;;;;;11.98;5.03;;;;;;;17.37;87.05;99835.44;5027342;28;20032;-70
2022/10/03 10:42:05;;;;;;;10.70;4.10;;;;;;;18.04;84.42;99842.03;5024336;28;20033;-71
2022/10/03 10:44:39;;;;;;;6.38;3.00;;;;;;;21.38;62.40;99833.41;5000694;28;20349;-71
2022/10/03 10:47:18;;;;;;;9.57;3.28;;;;;;;24.75;52.28;99824.22;5028607;28;20061;-71
2022/10/03 10:49:46;;;;;;;;;;;;;;;25.02;52.41;99824.03;5028871;28;20562;-70
2022/10/03 10:52:31;;;;;;;6.88;3.13;;;;;;;24.75;50.90;99817.88;5028948;28;19920;-76
2022/10/03 10:55:24;;;;;;;9.98;3.60;;;;;;;23.53;51.51;99825.16;5026455;28;20136;-71
2022/10/03 10:58:17;;;;;;;9.55;4.28;;;;;;;21.11;55.90;99826.81;5023473;28;20072;-72
2022/10/03 11:01:07;;;;;;;9.15;3.92;;;;;;;19.37;61.64;99825.78;5020839;28;20470;-72
2022/10/03 11:03:57;;;;;;;10.38;3.35;;;;;;;18.88;65.22;99825.03;5037593;28;20025;-72
2022/10/03 11:06:42;;;;;;;13.68;4.03;;;;;;;19.90;64.00;99828.44;5021018;28;20079;-70
2022/10/03 11:09:11;;;;;;;10.52;3.60;;;;;;;21.64;53.85;99814.53;5026440;28;20029;-71
2022/10/03 11:12:13;;;;;;;6.73;3.20;;;;;;;22.24;52.27;99810.19;5025476;28;20022;-71
2022/10/03 11:15:00;;;;;;;10.05;3.58;;;;;;;24.63;46.95;99802.34;5021259;28;20025;-70
2022/10/03 11:17:41;;;;;;;5.95;2.90;;;;;;;24.34;47.64;99796.38;5022164;28;20044;-71
2022/10/03 11:20:30;;;;;;;8.80;2.90;;;;;;;25.72;44.82;99788.31;5025402;28;20159;-72
2022/10/03 11:23:10;;;;;;;8.45;2.60;;;;;;;25.37;43.88;99786.41;5023911;28;20068;-72
2022/10/03 11:26:21;;;;;;;6.38;3.00;;;;;;;26.27;42.20;99782.94;5023784;28;20080;-70
2022/10/03 11:29:05;;;;;;;6.95;2.42;;;;;;;24.94;43.01;99796.84;5023702;28;20176;-72
2022/10/03 11:31:58;;;;;;;8.30;3.00;;;;;;;25.77;42.74;99784.72;5018047;28;20029;-70
2022/10/03 11:35:05;;;;;;;8.15;2.83;;;;;;;23.94;46.87;99797.81;5022690;28;20091;-70
2022/10/03 11:37:51;;;;;;;7.45;2.40;;;;;;;23.74;49.85;99793.00;5018244;28;20072;-70
2022/10/03 11:40:31;;;;;;;6.10;2.58;;;;;;;24.29;45.88;99793.59;5023711;28;20052;-70
2022/10/03 11:43:24;;;;;;;8.82;2.53;;;;;;;22.74;47.10;99787.94;5024123;28;20549;-70
2022/10/03 11:46:28;;;;;;;7.70;2.05;;;;;;;25.11;43.11;99783.59;5025296;28;20642;-70
2022/10/03 11:49:03;;;;;;;7.70;1.70;;;;;;;27.37;39.48;99755.94;5018674;28;20036;-70
2022/10/03 11:52:01;;;;;;;5.00;1.70;;;;;;;27.79;38.29;99773.06;5019498;28;20025;-72
2022/10/03 11:54:37;;;;;;;4.88;1.63;;;;;;;29.48;35.70;99769.69;5033829;28;20059;-70
2022/10/03 11:57:07;;;;;;;7.65;2.03;;;;;;;27.40;37.18;99768.41;5035153;28;20029;-70
2022/10/03 11:59:51;;;;;;;6.95;2.30;;;;;;;27.24;39.20;99774.09;5022309;28;20040;-70
2022/10/03 12:02:25;;;;;;;4.45;2.00;;;;;;;25.41;40.73;99776.44;5021207;28;20160;-72
2022/10/03 12:04:56;;;;;;;4.85;1.63;;;;;;;24.67;42.14;99775.78;5024913;28;20033;-72
2022/10/03 12:11:05;;;;;;;4.78;2.17;;;;;;;23.49;46.59;99770.69;5036982;28;20032;-71
2022/10/03 12:13:35;;;;;;;4.85;1.92;;;;;;;21.74;49.94;99773.38;5033377;28;20048;-70
2022/10/03 12:16:05;;;;;;;4.85;2.15;;;;;;;21.19;50.59;99765.88;5033275;28;20036;-70
2022/10/03 12:18:52;;;;;;;3.35;1.42;;;;;;;20.41;55.10;99757.28;5036399;28;20033;-72
2022/10/03 12:21:51;;;;;;;5.15;1.75;;;;;;;19.51;56.85;99768.72;5036669;28;20034;-70
2022/10/03 12:24:27;;;;;;;8.15;2.00;;;;;;;18.55;62.25;99755.88;5010343;28;20556;-70
2022/10/03 12:26:56;;;;;;;11.23;1.92;;;;;;;18.12;64.45;99753.25;5037501;28;20099;-70
2022/10/03 12:29:25;;;;;;;5.85;1.70;;;;;;;17.91;64.39;99744.44;5031883;28;20037;-71
2022/10/03 12:32:21;;;;;;;5.18;1.80;;;;;;;17.57;69.20;99765.00;5032071;28;20040;-70
2022/10/03 12:35:28;;;;;;;7.00;2.20;;;;;;;17.45;70.44;99756.69;5032716;28;20471;-70
2022/10/03 12:38:20;;;;;;;6.65;2.17;;;;;;;17.48;69.53;99755.41;5023297;28;20474;-71
2022/10/03 12:40:57;;;;;;;3.70;1.92;;;;;;;17.57;71.83;99761.41;5021900;28;20033;-70
2022/10/03 12:43:25;;;;;;;6.45;2.17;;;;;;;17.55;67.55;99753.44;5030832;28;20761;-70
2022/10/03 12:46:00;;;;;;;5.90;2.05;;;;;;;17.40;69.33;99755.69;5029717;28;20061;-71
2022/10/03 12:48:50;;;;;;;8.75;1.95;;;;;;;17.27;68.39;99754.75;5024989;28;20018;-69
2022/10/03 12:51:22;;;;;;;6.20;2.30;;;;;;;17.24;69.25;99749.72;5017662;28;20071;-71
2022/10/03 12:54:04;;;;;;;9.55;2.10;;;;;;;17.24;71.90;99743.44;5029519;28;20041;-70
2022/10/03 12:56:42;;;;;;;5.93;2.08;;;;;;;17.66;69.48;99744.50;5023232;28;20059;-70
2022/10/03 12:59:19;;;;;;;5.50;1.70;;;;;;;17.79;66.60;99723.50;5028092;28;20533;-71
2022/10/03 13:02:06;;;;;;;7.18;2.25;;;;;;;17.60;66.82;99742.63;5026004;28;20104;-70
2022/10/03 13:04:41;;;;;;;6.28;1.90;;;;;;;18.09;62.03;99742.78;5023797;28;20021;-70